Аэропорт
Бухта Провидения (UHMD)

 UHMD / PVS
ЗЦ Хабаровск
Магадан (UHMM)
Магадан (UHMM)
 64.37810, -173.24300  / 72 ft

 UHMD 240500Z 18007MPS 9999 FEW010 02/M01 Q1021 RMK QBB300 MT OBSC QFE765/1020

uhmd_aip_1605
показать схемы
Название сценария Тип сценария Flight Simulator 9 Flight Simulator X Prepar3D v2 Prepar3D v3 Prepar3D v4 xPlane
uhmd-scenery-fsx_p3d-1411 бесплатный


2019 © VATRUS division (Privacy Policy)